createdAt,value
2017-09-01T09:54:08.888Z,26.70
2017-09-01T09:56:41.845Z,28.27
2017-09-01T09:59:14.592Z,27.37
2017-09-01T10:01:47.523Z,28.57
2017-09-01T10:04:20.802Z,27.13
2017-09-01T10:06:53.040Z,29.03
2017-09-01T10:09:24.832Z,30.00
2017-09-01T10:11:57.234Z,29.80
2017-09-01T10:26:15.041Z,29.80
2017-09-01T10:28:55.283Z,27.77
2017-09-01T10:31:27.321Z,29.50
2017-09-01T10:34:00.408Z,29.87
2017-09-01T10:36:34.272Z,31.03
2017-09-01T10:39:07.856Z,29.77
2017-09-01T10:41:40.326Z,29.97
2017-09-01T10:44:13.776Z,29.20
2017-09-01T10:46:45.956Z,30.00
2017-09-01T10:49:24.013Z,32.10
2017-09-01T10:52:05.955Z,31.90
2017-09-01T10:54:48.829Z,32.63
2017-09-01T10:57:30.896Z,31.40
2017-09-01T11:00:03.535Z,31.80
2017-09-01T11:02:37.164Z,31.03
2017-09-01T11:05:10.116Z,32.60
2017-09-01T11:07:43.051Z,32.60
2017-09-01T11:10:16.333Z,31.00
2017-09-01T11:12:50.251Z,32.17
2017-09-01T11:15:23.864Z,32.50
2017-09-01T11:17:55.593Z,30.37
2017-09-01T11:20:32.986Z,29.80
2017-09-01T11:23:10.737Z,30.10
2017-09-01T11:25:43.850Z,31.20
2017-09-01T11:28:17.306Z,32.30
2017-09-01T11:30:49.122Z,32.57
2017-09-01T11:33:21.574Z,31.23
2017-09-01T11:35:52.954Z,32.50
2017-09-01T11:38:26.644Z,33.17
2017-09-01T11:41:00.480Z,33.67
2017-09-01T11:43:33.457Z,33.90
2017-09-01T11:46:06.464Z,32.37
2017-09-01T11:48:39.681Z,33.20
2017-09-01T11:51:12.749Z,33.13
2017-09-01T11:53:46.611Z,33.67
2017-09-01T11:56:21.211Z,32.27
2017-09-01T11:58:54.174Z,32.87
2017-09-01T12:01:27.430Z,31.07
2017-09-01T12:04:00.361Z,29.80
2017-09-01T12:06:33.600Z,29.47
2017-09-01T12:09:06.517Z,31.10
2017-09-01T12:11:39.855Z,32.23
2017-09-01T12:14:13.804Z,28.00
2017-09-01T12:16:47.681Z,30.90
2017-09-01T12:19:21.310Z,30.20
2017-09-01T12:21:53.451Z,31.47
2017-09-01T12:24:26.905Z,30.00
2017-09-01T12:27:00.504Z,29.67
2017-09-01T12:29:34.397Z,30.47
2017-09-01T12:32:08.006Z,29.70
2017-09-01T12:34:42.016Z,27.90
2017-09-01T12:37:15.548Z,28.03
2017-09-01T12:39:48.502Z,28.90
2017-09-01T12:42:22.087Z,28.57
2017-09-01T12:44:54.997Z,27.40
2017-09-01T12:47:29.051Z,28.67
2017-09-01T12:50:02.272Z,28.63
2017-09-01T12:52:35.846Z,28.90
2017-09-01T12:55:10.102Z,26.80
2017-09-01T12:57:44.695Z,27.20
2017-09-01T13:00:17.599Z,27.63
2017-09-01T13:02:52.179Z,26.83
2017-09-01T13:05:26.426Z,27.67
2017-09-01T13:07:59.066Z,25.90
2017-09-01T13:10:32.674Z,25.50
2017-09-01T13:13:05.822Z,26.83
2017-09-01T13:15:39.237Z,25.43
2017-09-01T13:18:12.542Z,23.83
2017-09-01T13:20:46.432Z,25.63
2017-09-01T13:23:19.875Z,26.10
2017-09-01T13:25:53.628Z,26.63
2017-09-01T13:28:26.928Z,26.33
2017-09-01T13:31:00.490Z,27.07
2017-09-01T13:33:32.363Z,26.93
2017-09-01T13:36:04.778Z,27.00
2017-09-01T13:38:39.074Z,25.67
2017-09-01T13:41:12.705Z,26.57
2017-09-01T13:43:44.556Z,26.10
2017-09-01T13:46:17.954Z,26.10
2017-09-01T13:48:50.878Z,26.20
2017-09-01T13:51:25.177Z,27.20
2017-09-01T13:53:58.749Z,25.83
2017-09-01T13:56:32.025Z,27.50
2017-09-01T13:59:06.274Z,29.03
2017-09-01T14:01:39.845Z,29.53
2017-09-01T14:04:13.434Z,30.80
2017-09-01T14:06:46.777Z,30.37
2017-09-01T14:09:20.643Z,32.43
2017-09-01T14:11:53.915Z,29.60
2017-09-01T14:14:26.884Z,30.13
2017-09-01T14:17:00.155Z,29.57
2017-09-01T14:19:33.433Z,28.63
2017-09-01T14:22:08.223Z,30.07
2017-09-01T14:24:40.962Z,30.33
2017-09-01T14:27:14.020Z,29.73
2017-09-01T14:29:47.530Z,31.67
2017-09-01T14:32:21.763Z,29.40
2017-09-01T14:34:55.371Z,28.83
2017-09-01T14:37:29.620Z,25.73
2017-09-01T14:40:03.838Z,23.13
2017-09-01T14:42:36.809Z,24.60
2017-09-01T14:45:10.106Z,24.80
2017-09-01T14:47:44.013Z,25.13
2017-09-01T14:50:17.290Z,25.97
2017-09-01T14:52:49.785Z,24.50
2017-09-01T14:55:22.895Z,23.83
2017-09-01T14:57:55.722Z,24.40
2017-09-01T15:00:29.844Z,24.27
2017-09-01T15:03:01.710Z,24.03
2017-09-01T15:05:33.452Z,24.23
2017-09-01T15:08:06.412Z,26.50
2017-09-01T15:10:39.370Z,23.60
2017-09-01T15:13:11.660Z,24.77
2017-09-01T15:15:46.258Z,23.50
2017-09-01T15:18:19.541Z,23.93
2017-09-01T15:20:51.981Z,24.30
2017-09-01T15:23:25.622Z,23.90
2017-09-01T15:25:57.764Z,24.30
2017-09-01T15:28:29.661Z,23.67
2017-09-01T15:31:01.436Z,27.70
2017-09-01T15:33:34.365Z,24.73
2017-09-01T15:36:06.141Z,26.83
2017-09-01T15:38:39.452Z,27.43
2017-09-01T15:41:13.042Z,26.90
2017-09-01T15:43:46.593Z,27.77
2017-09-01T15:46:19.809Z,25.30
2017-09-01T15:48:52.754Z,25.10
2017-09-01T15:51:25.435Z,23.73
2017-09-01T15:53:58.437Z,24.73
2017-09-01T15:56:31.562Z,24.17
2017-09-01T15:59:04.976Z,25.40
2017-09-01T16:01:38.574Z,25.47
2017-09-01T16:04:11.694Z,24.00
2017-09-01T16:06:43.607Z,21.70
2017-09-01T16:09:17.134Z,23.00
2017-09-01T16:11:49.262Z,22.97
2017-09-01T16:14:22.738Z,22.53
2017-09-01T16:16:55.684Z,21.70
2017-09-01T16:19:28.688Z,21.37
2017-09-01T16:22:02.584Z,20.80
2017-09-01T16:24:36.176Z,21.53
2017-09-01T16:27:09.466Z,21.50
2017-09-01T16:29:41.567Z,20.40
2017-09-01T16:32:13.457Z,20.93
2017-09-01T16:34:45.576Z,21.40
2017-09-01T16:37:17.786Z,20.60
2017-09-01T16:39:50.775Z,22.50
2017-09-01T16:42:22.459Z,21.20
2017-09-01T16:44:55.236Z,22.40
2017-09-01T16:47:28.458Z,20.33
2017-09-01T16:50:01.925Z,21.50
2017-09-01T16:52:34.903Z,21.80
2017-09-01T16:55:07.944Z,24.80
2017-09-01T16:57:40.770Z,24.70
2017-09-01T17:00:13.510Z,23.83
2017-09-01T17:02:47.163Z,24.40
2017-09-01T17:05:20.999Z,23.70
2017-09-01T17:07:54.049Z,22.93
2017-09-01T17:10:28.200Z,21.97
2017-09-01T17:13:00.747Z,23.17
2017-09-01T17:15:33.107Z,20.60
2017-09-01T17:18:06.461Z,22.10
2017-09-01T17:20:38.679Z,24.63
2017-09-01T17:23:11.328Z,24.77
2017-09-01T17:25:44.060Z,25.33
2017-09-01T17:28:16.929Z,24.27
2017-09-01T17:30:51.054Z,23.50
2017-09-01T17:33:24.139Z,23.50
2017-09-01T17:35:57.470Z,22.37
2017-09-01T17:38:30.701Z,22.20
2017-09-01T17:41:03.228Z,22.97
2017-09-01T17:43:36.190Z,24.47
2017-09-01T17:46:09.250Z,23.93
2017-09-01T17:48:42.268Z,22.97
2017-09-01T17:51:14.758Z,22.57
2017-09-01T17:53:47.880Z,22.73
2017-09-01T17:56:21.148Z,25.00
2017-09-01T17:58:54.030Z,25.97
2017-09-01T18:01:27.148Z,25.70
2017-09-01T18:04:01.629Z,24.60
2017-09-01T18:06:35.258Z,25.70
2017-09-01T18:09:07.868Z,23.47
2017-09-01T18:11:40.127Z,24.97
2017-09-01T18:14:12.838Z,25.27
2017-09-01T18:16:46.118Z,22.40
2017-09-01T18:19:18.448Z,23.10
2017-09-01T18:21:51.258Z,23.93
2017-09-01T18:24:23.724Z,22.37
2017-09-01T18:26:55.468Z,22.60
2017-09-01T18:29:27.559Z,24.93
2017-09-01T18:32:00.349Z,23.13
2017-09-01T18:34:33.316Z,25.50
2017-09-01T18:37:06.259Z,26.57
2017-09-01T18:39:39.238Z,24.73
2017-09-01T18:42:11.392Z,23.97
2017-09-01T18:44:44.114Z,23.00
2017-09-01T18:47:16.189Z,23.13
2017-09-01T18:49:48.984Z,21.73
2017-09-01T18:52:21.801Z,23.33
2017-09-01T18:54:55.406Z,25.80
2017-09-01T18:57:28.053Z,24.93
2017-09-01T19:00:00.661Z,23.40
2017-09-01T19:02:33.018Z,23.57
2017-09-01T19:05:07.193Z,21.93
2017-09-01T19:07:39.833Z,20.97
2017-09-01T19:10:12.492Z,21.17
2017-09-01T19:12:46.072Z,21.17
2017-09-01T19:15:18.732Z,23.63
2017-09-01T19:17:51.670Z,23.43
2017-09-01T19:20:23.792Z,24.00
2017-09-01T19:22:56.634Z,24.13
2017-09-01T19:25:29.452Z,25.00
2017-09-01T19:28:02.423Z,24.20
2017-09-01T19:30:35.869Z,23.97
2017-09-01T19:33:07.732Z,23.60
2017-09-01T19:35:39.512Z,23.50
2017-09-01T19:38:11.128Z,23.60
2017-09-01T19:40:42.833Z,24.87
2017-09-01T19:43:14.680Z,24.10
2017-09-01T19:45:46.271Z,24.10
2017-09-01T19:48:18.912Z,21.77
2017-09-01T19:50:51.272Z,23.03
2017-09-01T19:53:23.668Z,22.33
2017-09-01T19:55:56.065Z,22.57
2017-09-01T19:58:28.391Z,22.20
2017-09-01T20:01:00.981Z,22.33
2017-09-01T20:03:33.769Z,22.30
2017-09-01T20:06:06.821Z,19.93
2017-09-01T20:08:39.391Z,22.07
2017-09-01T20:11:11.679Z,18.60
2017-09-01T20:13:44.021Z,19.90
2017-09-01T20:16:16.152Z,20.17
2017-09-01T20:18:48.138Z,20.63
2017-09-01T20:21:21.353Z,21.30
2017-09-01T20:23:53.991Z,19.00
2017-09-01T20:26:26.262Z,20.43
2017-09-01T20:28:59.193Z,18.40
2017-09-01T20:31:32.195Z,21.70
2017-09-01T20:34:05.115Z,20.50
2017-09-01T20:36:39.386Z,20.53
2017-09-01T20:39:12.956Z,21.07
2017-09-01T20:41:46.005Z,21.17
2017-09-01T20:44:18.127Z,21.83
2017-09-01T20:46:51.575Z,20.83
2017-09-01T20:49:25.453Z,21.07
2017-09-01T20:51:58.296Z,22.20
2017-09-01T20:54:31.426Z,21.03
2017-09-01T20:57:04.986Z,20.93
2017-09-01T20:59:38.286Z,20.70
2017-09-01T21:02:11.547Z,20.73
2017-09-01T21:04:44.215Z,18.83
2017-09-01T21:07:18.759Z,19.40
2017-09-01T21:09:52.347Z,19.30
2017-09-01T21:12:25.307Z,19.07
2017-09-01T21:14:58.905Z,19.23
2017-09-01T21:17:32.181Z,19.20
2017-09-01T21:20:05.359Z,17.80
2017-09-01T21:22:38.392Z,17.33
2017-09-01T21:25:12.022Z,18.40
2017-09-01T21:27:44.275Z,17.10
2017-09-01T21:30:17.016Z,17.47
2017-09-01T21:32:50.184Z,16.50
2017-09-01T21:35:24.174Z,15.77
2017-09-01T21:37:56.802Z,16.23
2017-09-01T21:40:30.292Z,15.70
2017-09-01T21:43:03.321Z,16.07
2017-09-01T21:45:36.322Z,17.00
2017-09-01T21:48:09.593Z,18.30
2017-09-01T21:50:42.877Z,18.60
2017-09-01T21:53:16.157Z,17.50
2017-09-01T21:55:50.100Z,20.50
2017-09-01T21:58:23.356Z,20.90
2017-09-01T22:01:06.322Z,21.10
2017-09-01T22:03:39.598Z,20.63
2017-09-01T22:08:53.811Z,19.93
2017-09-01T22:11:26.709Z,19.40
2017-09-01T22:13:59.389Z,19.10
2017-09-01T22:16:32.974Z,19.30
2017-09-01T22:19:06.269Z,18.27
2017-09-01T22:21:39.549Z,19.40
2017-09-01T22:24:12.797Z,17.33
2017-09-01T22:26:46.135Z,18.10
2017-09-01T22:29:19.032Z,17.13
2017-09-01T22:31:52.640Z,17.50
2017-09-01T22:34:26.252Z,17.47
2017-09-01T22:37:00.568Z,17.53
2017-09-01T22:39:33.450Z,17.37
2017-09-01T22:42:06.721Z,16.50
2017-09-01T22:44:40.019Z,17.10
2017-09-01T22:47:12.679Z,18.80
2017-09-01T22:49:45.319Z,18.23
2017-09-01T22:52:18.569Z,19.13
2017-09-01T22:54:52.169Z,19.13
2017-09-01T22:57:26.089Z,18.40
2017-09-01T22:59:59.367Z,18.83
2017-09-01T23:02:32.328Z,17.47
2017-09-01T23:05:04.350Z,17.67
2017-09-01T23:07:37.067Z,18.17
2017-09-01T23:10:11.045Z,18.00
2017-09-01T23:12:44.156Z,19.63
2017-09-01T23:15:16.805Z,19.30
2017-09-01T23:17:50.303Z,19.50
2017-09-01T23:20:23.066Z,20.40
2017-09-01T23:22:56.025Z,20.60
2017-09-01T23:25:28.753Z,19.87
2017-09-01T23:28:01.629Z,20.67
2017-09-01T23:30:34.267Z,20.50
2017-09-01T23:33:07.847Z,21.27
2017-09-01T23:35:40.501Z,20.33
2017-09-01T23:38:14.091Z,18.23
2017-09-01T23:40:47.687Z,20.00
2017-09-01T23:43:20.383Z,19.40
2017-09-01T23:45:53.330Z,17.87
2017-09-01T23:48:26.274Z,17.90
2017-09-01T23:50:58.908Z,16.97
2017-09-01T23:53:32.169Z,18.33
2017-09-01T23:56:05.487Z,17.17
2017-09-01T23:58:39.388Z,17.23
